TGU weather

Toncontín International Airport
Tegucigalpa, Francisco Morazan, Honduras

Public forecast

Using degrees Celsius for public forecast. Weather courtesy of forecast.io.

Current aviation weather report (METAR) for Toncontín International Airport

Retrieved 2019/12/12 21:00 UTC (16 minutes ago):

MHTG 122100Z 03010KT 9999 BKN030 SCT250 26/14 Q1018 A3006 NOSIG

Aviation forecast (TAF) for Toncontín International Airport

Retrieved 2019/12/12 18:00 UTC (3 hours ago):

TAF MHTG 121656Z 1218/1318 36010KT 9999 SCT028 TX27/1220Z TN16/1312Z